createdAt,value
2022-10-12T00:01:18.501Z,4.57
2022-10-12T00:03:46.583Z,3.93
2022-10-12T00:06:18.823Z,4.00
2022-10-12T00:08:47.939Z,3.73
2022-10-12T00:11:19.487Z,3.80
2022-10-12T00:13:47.704Z,3.27
2022-10-12T00:16:18.448Z,4.77
2022-10-12T00:18:50.931Z,4.43
2022-10-12T00:21:21.046Z,3.80
2022-10-12T00:23:50.946Z,3.50
2022-10-12T00:26:21.520Z,3.53
2022-10-12T00:28:51.603Z,3.60
2022-10-12T00:31:22.020Z,3.60
2022-10-12T00:33:50.190Z,3.90
2022-10-12T00:36:22.350Z,2.93
2022-10-12T00:38:52.151Z,2.70
2022-10-12T00:41:23.727Z,2.03
2022-10-12T00:43:57.863Z,1.90
2022-10-12T00:46:32.014Z,1.90
2022-10-12T00:49:08.142Z,2.37
2022-10-12T00:51:41.021Z,2.93
2022-10-12T00:54:24.057Z,3.10
2022-10-12T00:56:54.366Z,3.90
2022-10-12T00:59:29.668Z,3.17
2022-10-12T01:01:58.170Z,3.20
2022-10-12T01:04:27.465Z,2.90
2022-10-12T01:06:57.797Z,3.07
2022-10-12T01:09:27.929Z,3.17
2022-10-12T01:11:57.648Z,3.50
2022-10-12T01:14:26.065Z,3.33
2022-10-12T01:16:59.675Z,3.27
2022-10-12T01:19:57.005Z,3.40
2022-10-12T01:22:27.411Z,2.93
2022-10-12T01:25:07.079Z,3.27
2022-10-12T01:27:43.053Z,3.47
2022-10-12T01:30:25.747Z,3.17
2022-10-12T01:33:23.193Z,3.10
2022-10-12T01:35:58.719Z,3.47
2022-10-12T01:38:38.292Z,3.43
2022-10-12T01:41:12.267Z,2.83
2022-10-12T01:43:42.671Z,3.07
2022-10-12T01:46:44.829Z,3.00
2022-10-12T01:49:15.034Z,3.80
2022-10-12T01:52:00.392Z,4.30
2022-10-12T01:54:40.576Z,2.80
2022-10-12T01:57:18.992Z,3.07
2022-10-12T01:59:56.173Z,2.80
2022-10-12T02:02:31.524Z,2.90
2022-10-12T02:05:03.830Z,2.33
2022-10-12T02:07:43.269Z,2.57
2022-10-12T02:10:17.822Z,3.47
2022-10-12T02:12:50.307Z,2.73
2022-10-12T02:15:19.558Z,2.30
2022-10-12T02:17:52.398Z,2.37
2022-10-12T02:20:23.807Z,2.80
2022-10-12T02:22:53.315Z,2.30
2022-10-12T02:25:26.038Z,2.10
2022-10-12T02:28:00.596Z,2.43
2022-10-12T02:30:29.387Z,2.27
2022-10-12T02:33:07.394Z,2.00
2022-10-12T02:35:39.903Z,2.70
2022-10-12T02:38:13.592Z,1.90
2022-10-12T02:40:52.248Z,2.30
2022-10-12T02:43:26.123Z,2.33
2022-10-12T02:45:56.914Z,2.00
2022-10-12T02:48:28.134Z,2.33
2022-10-12T02:50:58.333Z,2.03
2022-10-12T02:53:28.991Z,2.10
2022-10-12T02:56:03.523Z,2.03
2022-10-12T02:58:31.891Z,1.83
2022-10-12T03:01:00.063Z,1.70
2022-10-12T03:03:30.266Z,2.60
2022-10-12T03:05:58.428Z,1.67
2022-10-12T03:08:26.610Z,1.43
2022-10-12T03:10:54.703Z,1.73
2022-10-12T03:13:23.261Z,2.20
2022-10-12T03:15:51.291Z,1.93
2022-10-12T03:18:19.404Z,1.80
2022-10-12T03:20:50.771Z,1.50
2022-10-12T03:23:19.234Z,1.80
2022-10-12T03:25:47.350Z,1.53
2022-10-12T03:28:15.509Z,1.40
2022-10-12T03:30:44.183Z,1.80
2022-10-12T03:33:12.772Z,1.70
2022-10-12T03:35:40.987Z,1.63
2022-10-12T03:38:10.491Z,1.50
2022-10-12T03:40:39.325Z,1.30
2022-10-12T03:43:07.773Z,2.00
2022-10-12T03:45:36.131Z,2.07
2022-10-12T03:48:05.358Z,1.57
2022-10-12T03:50:36.391Z,1.70
2022-10-12T03:53:05.925Z,1.50
2022-10-12T03:55:35.455Z,1.73
2022-10-12T03:58:03.554Z,1.60
2022-10-12T04:00:32.279Z,1.30
2022-10-12T04:03:02.183Z,1.57
2022-10-12T04:05:30.459Z,1.40
2022-10-12T04:07:58.596Z,1.50
2022-10-12T04:10:26.852Z,2.00
2022-10-12T04:12:56.451Z,1.47
2022-10-12T04:15:24.968Z,1.77
2022-10-12T04:17:53.067Z,1.30
2022-10-12T04:20:21.190Z,1.57
2022-10-12T04:22:49.423Z,1.37
2022-10-12T04:25:17.718Z,1.23
2022-10-12T04:27:45.835Z,1.50
2022-10-12T04:30:16.125Z,1.30
2022-10-12T04:32:44.330Z,1.27
2022-10-12T04:35:12.821Z,1.50
2022-10-12T04:37:41.274Z,1.87
2022-10-12T04:40:10.481Z,1.40
2022-10-12T04:42:38.653Z,1.40
2022-10-12T04:45:08.183Z,1.60
2022-10-12T04:47:37.885Z,1.90
2022-10-12T04:50:07.182Z,1.40
2022-10-12T04:52:36.002Z,1.77
2022-10-12T04:55:04.238Z,1.60
2022-10-12T04:57:32.428Z,1.57
2022-10-12T05:00:00.530Z,1.40
2022-10-12T05:02:28.762Z,1.50
2022-10-12T05:04:58.468Z,1.33
2022-10-12T05:07:26.581Z,1.63
2022-10-12T05:09:55.141Z,1.50
2022-10-12T05:12:23.285Z,1.77
2022-10-12T05:14:51.699Z,1.57
2022-10-12T05:17:19.866Z,1.37
2022-10-12T05:19:48.004Z,1.20
2022-10-12T05:22:17.555Z,1.50
2022-10-12T05:24:48.930Z,1.87
2022-10-12T05:27:21.071Z,1.90
2022-10-12T05:29:49.213Z,2.43
2022-10-12T05:32:17.428Z,2.50
2022-10-12T05:34:45.635Z,1.93
2022-10-12T05:37:13.829Z,1.70
2022-10-12T05:39:43.374Z,1.50
2022-10-12T05:42:11.949Z,1.50
2022-10-12T05:44:40.095Z,1.30
2022-10-12T05:47:08.359Z,1.37
2022-10-12T05:49:37.126Z,1.87
2022-10-12T05:52:05.509Z,1.47
2022-10-12T05:54:33.938Z,1.47
2022-10-12T05:57:03.799Z,1.97
2022-10-12T05:59:32.360Z,1.63
2022-10-12T06:02:01.166Z,1.47
2022-10-12T06:04:29.760Z,2.30
2022-10-12T06:06:58.257Z,1.77
2022-10-12T06:09:26.712Z,1.87
2022-10-12T06:11:55.531Z,2.00
2022-10-12T06:14:25.572Z,1.60
2022-10-12T06:16:54.585Z,1.50
2022-10-12T06:19:22.868Z,1.83
2022-10-12T06:21:50.941Z,1.80
2022-10-12T06:24:19.636Z,2.40
2022-10-12T06:26:48.847Z,1.37
2022-10-12T06:29:17.576Z,1.80
2022-10-12T06:31:51.460Z,1.90
2022-10-12T06:34:20.056Z,1.80
2022-10-12T06:36:48.360Z,1.70
2022-10-12T06:39:16.606Z,1.60
2022-10-12T06:41:45.141Z,2.10
2022-10-12T06:44:13.219Z,4.47
2022-10-12T06:46:41.252Z,4.23
2022-10-12T06:49:11.884Z,3.70
2022-10-12T06:51:39.978Z,3.33
2022-10-12T06:54:18.590Z,2.57
2022-10-12T06:56:55.430Z,2.30
2022-10-12T06:59:26.788Z,2.23
2022-10-12T07:01:55.280Z,2.67
2022-10-12T07:04:24.767Z,3.70
2022-10-12T07:06:52.955Z,2.53
2022-10-12T07:09:21.057Z,2.90
2022-10-12T07:11:49.460Z,3.00
2022-10-12T07:14:17.790Z,2.27
2022-10-12T07:16:45.986Z,3.03
2022-10-12T07:19:14.817Z,2.63
2022-10-12T07:21:44.346Z,2.83
2022-10-12T07:24:13.904Z,3.57
2022-10-12T07:26:42.004Z,2.80
2022-10-12T07:29:10.457Z,2.50
2022-10-12T07:31:38.888Z,3.03
2022-10-12T07:34:07.056Z,2.63
2022-10-12T07:36:58.171Z,2.83
2022-10-12T07:39:25.463Z,2.73
2022-10-12T07:41:53.904Z,2.00
2022-10-12T07:44:22.574Z,2.00
2022-10-12T07:46:51.252Z,1.77
2022-10-12T07:49:19.555Z,3.93
2022-10-12T07:51:47.923Z,2.00
2022-10-12T07:54:20.931Z,2.13
2022-10-12T07:56:50.695Z,2.87
2022-10-12T07:59:18.996Z,2.30
2022-10-12T08:01:47.145Z,2.70
2022-10-12T08:04:15.381Z,2.50
2022-10-12T08:06:44.833Z,2.80
2022-10-12T08:09:13.350Z,3.10
2022-10-12T08:11:43.249Z,2.27
2022-10-12T08:14:17.303Z,2.20
2022-10-12T08:16:46.447Z,3.73
2022-10-12T08:19:14.957Z,2.57
2022-10-12T08:21:43.405Z,2.80
2022-10-12T08:24:12.003Z,2.30
2022-10-12T08:26:40.442Z,2.00
2022-10-12T08:29:11.306Z,2.10
2022-10-12T08:31:41.641Z,1.63
2022-10-12T08:34:09.925Z,2.20
2022-10-12T08:36:38.537Z,1.57
2022-10-12T08:39:08.732Z,1.67
2022-10-12T08:41:47.976Z,1.63
2022-10-12T08:44:41.975Z,1.50
2022-10-12T08:47:18.199Z,0.60
2022-10-12T08:49:50.329Z,0.83
2022-10-12T08:52:28.203Z,1.10
2022-10-12T08:55:03.070Z,0.80
2022-10-12T08:57:31.436Z,0.70
2022-10-12T09:00:01.878Z,0.90
2022-10-12T09:02:49.927Z,0.80
2022-10-12T09:05:24.143Z,1.20
2022-10-12T09:07:58.238Z,0.80
2022-10-12T09:10:36.576Z,1.07
2022-10-12T09:13:14.400Z,0.70
2022-10-12T09:15:50.900Z,0.70
2022-10-12T09:18:23.331Z,0.90
2022-10-12T09:20:53.140Z,0.70
2022-10-12T09:23:31.585Z,0.80
2022-10-12T09:26:17.401Z,0.63
2022-10-12T09:28:47.678Z,1.30
2022-10-12T09:31:36.502Z,1.00
2022-10-12T09:34:08.743Z,0.80
2022-10-12T09:36:38.855Z,1.47
2022-10-12T09:39:13.781Z,1.07
2022-10-12T09:41:44.272Z,1.30
2022-10-12T09:44:20.661Z,0.90
2022-10-12T09:46:56.487Z,1.07
2022-10-12T09:49:42.233Z,1.23
2022-10-12T09:52:11.362Z,1.40
2022-10-12T09:54:41.908Z,2.73
2022-10-12T09:57:10.848Z,1.87
2022-10-12T09:59:44.630Z,1.23
2022-10-12T10:02:17.497Z,1.57
2022-10-12T10:04:48.975Z,1.73
2022-10-12T10:07:29.903Z,1.70
2022-10-12T10:10:16.613Z,1.43
2022-10-12T10:12:55.989Z,1.67
2022-10-12T10:15:27.943Z,1.60
2022-10-12T10:18:00.974Z,1.90
2022-10-12T10:20:34.993Z,2.07
2022-10-12T10:23:05.197Z,2.00
2022-10-12T10:25:34.335Z,1.60
2022-10-12T10:28:23.576Z,1.60
2022-10-12T10:31:02.450Z,1.50
2022-10-12T10:33:31.711Z,1.87
2022-10-12T10:36:04.204Z,2.53
2022-10-12T10:38:34.602Z,2.50
2022-10-12T10:41:07.682Z,2.70
2022-10-12T10:43:36.776Z,2.10
2022-10-12T10:46:06.736Z,2.13
2022-10-12T10:48:53.088Z,2.13
2022-10-12T10:51:22.672Z,2.40
2022-10-12T10:53:52.432Z,2.43
2022-10-12T10:56:25.231Z,2.73
2022-10-12T10:58:56.542Z,2.83
2022-10-12T11:01:33.380Z,2.60
2022-10-12T11:04:05.388Z,2.67
2022-10-12T11:06:40.880Z,2.57
2022-10-12T11:09:14.483Z,2.60
2022-10-12T11:11:46.105Z,3.07
2022-10-12T11:14:18.495Z,3.53
2022-10-12T11:16:51.893Z,2.43
2022-10-12T11:19:27.624Z,2.57
2022-10-12T11:22:00.504Z,2.73
2022-10-12T11:24:34.592Z,2.97
2022-10-12T11:27:08.956Z,2.90
2022-10-12T11:29:38.304Z,2.40
2022-10-12T11:32:15.185Z,2.43
2022-10-12T11:34:49.645Z,2.83
2022-10-12T11:37:21.942Z,2.67
2022-10-12T11:39:53.800Z,2.40
2022-10-12T11:42:30.327Z,2.20
2022-10-12T11:45:00.902Z,3.20
2022-10-12T11:47:37.428Z,2.70
2022-10-12T11:50:25.734Z,2.00
2022-10-12T11:52:57.726Z,2.10
2022-10-12T11:55:42.337Z,2.10
2022-10-12T11:58:20.144Z,2.30
2022-10-12T12:01:22.805Z,2.57
2022-10-12T12:04:47.732Z,2.77
2022-10-12T12:07:43.151Z,2.33
2022-10-12T12:11:00.202Z,2.10
2022-10-12T12:13:30.301Z,2.00
2022-10-12T12:16:35.248Z,2.30
2022-10-12T12:19:37.976Z,2.50
2022-10-12T12:22:17.695Z,2.03
2022-10-12T12:25:05.951Z,2.53
2022-10-12T12:27:37.810Z,2.63
2022-10-12T12:30:27.169Z,1.90
2022-10-12T12:32:57.187Z,2.50
2022-10-12T12:35:39.385Z,9.33
2022-10-12T12:38:25.153Z,8.27
2022-10-12T12:41:06.527Z,2.67
2022-10-12T12:43:57.867Z,2.73
2022-10-12T12:47:44.644Z,1.73
2022-10-12T12:50:02.354Z,1.83
2022-10-12T12:52:33.208Z,2.00
2022-10-12T12:55:22.764Z,1.80
2022-10-12T12:58:14.304Z,1.73
2022-10-12T13:00:55.005Z,1.87
2022-10-12T13:03:56.382Z,1.60
2022-10-12T13:07:05.073Z,1.60
2022-10-12T13:09:50.362Z,1.40
2022-10-12T13:12:35.755Z,1.40
2022-10-12T13:15:24.573Z,1.90
2022-10-12T13:18:45.776Z,1.80
2022-10-12T13:21:23.768Z,1.43
2022-10-12T13:23:55.894Z,1.70
2022-10-12T13:26:27.250Z,3.23
2022-10-12T13:28:56.979Z,4.53
2022-10-12T13:31:29.507Z,3.83
2022-10-12T13:34:03.799Z,4.90
2022-10-12T13:36:36.268Z,2.37
2022-10-12T13:39:16.416Z,2.10
2022-10-12T13:41:45.598Z,2.80
2022-10-12T13:44:23.513Z,1.33
2022-10-12T13:46:52.663Z,1.43
2022-10-12T13:49:22.683Z,1.53
2022-10-12T13:51:54.829Z,2.20
2022-10-12T13:54:24.958Z,1.63
2022-10-12T13:56:59.781Z,2.07
2022-10-12T13:59:32.030Z,1.87
2022-10-12T14:02:02.325Z,2.57
2022-10-12T14:04:32.849Z,1.80
2022-10-12T14:07:06.699Z,1.83
2022-10-12T14:09:41.839Z,1.77
2022-10-12T14:12:11.484Z,1.90
2022-10-12T14:14:41.918Z,1.73
2022-10-12T14:17:16.059Z,2.13
2022-10-12T14:19:47.957Z,2.30
2022-10-12T14:22:25.255Z,1.90
2022-10-12T14:25:06.984Z,1.90
2022-10-12T14:27:37.714Z,2.07
2022-10-12T14:30:17.347Z,1.87
2022-10-12T14:32:48.473Z,1.70
2022-10-12T14:35:26.137Z,2.10
2022-10-12T14:37:57.175Z,2.13
2022-10-12T14:40:32.579Z,2.33
2022-10-12T14:43:03.682Z,3.77
2022-10-12T14:45:33.983Z,3.70
2022-10-12T14:48:03.322Z,3.50
2022-10-12T14:50:33.228Z,2.57
2022-10-12T14:53:08.008Z,2.10
2022-10-12T14:55:36.506Z,2.37
2022-10-12T14:58:08.269Z,2.17
2022-10-12T15:00:38.300Z,1.97
2022-10-12T15:03:06.832Z,2.83
2022-10-12T15:05:35.650Z,2.30
2022-10-12T15:08:09.015Z,2.20
2022-10-12T15:10:38.136Z,1.67
2022-10-12T15:13:06.390Z,2.47
2022-10-12T15:15:39.342Z,2.33
2022-10-12T15:18:08.126Z,2.63
2022-10-12T15:20:37.090Z,2.43
2022-10-12T15:23:07.149Z,2.00
2022-10-12T15:25:43.173Z,2.50
2022-10-12T15:28:11.404Z,2.03
2022-10-12T15:30:52.091Z,2.17
2022-10-12T15:33:27.841Z,2.60
2022-10-12T15:35:55.986Z,2.13
2022-10-12T15:38:25.963Z,2.60
2022-10-12T15:40:58.078Z,2.47
2022-10-12T15:43:26.877Z,2.33
2022-10-12T15:46:01.572Z,2.67
2022-10-12T15:48:35.665Z,3.80
2022-10-12T15:51:08.526Z,3.70
2022-10-12T15:53:38.370Z,2.90
2022-10-12T15:56:14.424Z,4.30
2022-10-12T15:58:42.855Z,3.67
2022-10-12T16:01:14.651Z,3.57
2022-10-12T16:03:43.735Z,2.67
2022-10-12T16:06:12.276Z,2.77
2022-10-12T16:08:42.051Z,2.63
2022-10-12T16:11:14.049Z,2.77
2022-10-12T16:13:48.946Z,3.50
2022-10-12T16:16:20.722Z,3.10
2022-10-12T16:18:49.231Z,3.37
2022-10-12T16:21:17.422Z,3.67
2022-10-12T16:23:47.111Z,3.13
2022-10-12T16:26:16.440Z,3.83
2022-10-12T16:28:45.271Z,3.83
2022-10-12T16:31:17.712Z,3.50
2022-10-12T16:33:47.786Z,3.10
2022-10-12T16:36:17.964Z,2.73
2022-10-12T16:38:47.539Z,2.60
2022-10-12T16:41:18.710Z,2.87
2022-10-12T16:43:47.049Z,3.10
2022-10-12T16:46:15.402Z,3.90
2022-10-12T16:48:44.569Z,3.10
2022-10-12T16:51:14.482Z,2.80
2022-10-12T16:53:42.824Z,3.00
2022-10-12T16:56:12.447Z,3.63
2022-10-12T16:58:41.986Z,2.80
2022-10-12T17:01:13.123Z,3.10
2022-10-12T17:03:42.670Z,3.27
2022-10-12T17:06:11.016Z,3.50
2022-10-12T17:08:40.137Z,3.73
2022-10-12T17:11:09.683Z,3.43
2022-10-12T17:13:44.045Z,2.30
2022-10-12T17:16:32.749Z,3.00
2022-10-12T17:19:01.097Z,3.17
2022-10-12T17:21:29.629Z,3.50
2022-10-12T17:23:58.376Z,3.57
2022-10-12T17:26:27.179Z,3.83
2022-10-12T17:28:56.945Z,3.87
2022-10-12T17:31:26.067Z,3.97
2022-10-12T17:33:54.301Z,5.03
2022-10-12T17:36:27.854Z,5.00
2022-10-12T17:38:57.479Z,4.37
2022-10-12T17:41:28.609Z,4.87
2022-10-12T17:43:58.750Z,4.97
2022-10-12T17:46:26.884Z,4.40
2022-10-12T17:48:56.349Z,5.70
2022-10-12T17:51:24.569Z,5.03
2022-10-12T17:53:53.593Z,6.30
2022-10-12T17:56:23.267Z,6.17
2022-10-12T17:58:55.278Z,6.83
2022-10-12T18:01:26.305Z,6.13
2022-10-12T18:03:55.574Z,6.27
2022-10-12T18:06:25.149Z,6.57
2022-10-12T18:08:55.196Z,6.77
2022-10-12T18:11:25.582Z,6.07
2022-10-12T18:13:56.154Z,6.90
2022-10-12T18:16:27.840Z,7.60
2022-10-12T18:18:56.974Z,7.20
2022-10-12T18:21:27.770Z,7.37
2022-10-12T18:23:56.344Z,7.53
2022-10-12T18:26:25.081Z,7.30
2022-10-12T18:28:55.780Z,6.50
2022-10-12T18:31:26.850Z,5.97
2022-10-12T18:33:55.192Z,6.40
2022-10-12T18:36:23.445Z,6.07
2022-10-12T18:38:51.988Z,7.00
2022-10-12T18:41:23.580Z,5.93
2022-10-12T18:43:57.920Z,7.30
2022-10-12T18:46:29.385Z,6.40
2022-10-12T18:48:57.992Z,6.47
2022-10-12T18:51:27.999Z,7.23
2022-10-12T18:53:57.394Z,6.87
2022-10-12T18:56:26.148Z,7.13
2022-10-12T18:58:54.903Z,7.13
2022-10-12T19:01:25.480Z,6.73
2022-10-12T19:03:56.381Z,7.17
2022-10-12T19:06:26.790Z,6.33
2022-10-12T19:08:59.798Z,6.93
2022-10-12T19:11:29.400Z,6.60
2022-10-12T19:14:00.450Z,5.80
2022-10-12T19:16:29.712Z,5.60
2022-10-12T19:19:01.489Z,5.97
2022-10-12T19:21:29.990Z,6.40
2022-10-12T19:23:58.183Z,7.13
2022-10-12T19:26:28.748Z,6.30
2022-10-12T19:28:58.500Z,6.70
2022-10-12T19:31:28.703Z,6.40
2022-10-12T19:34:00.544Z,6.30
2022-10-12T19:36:29.562Z,7.33
2022-10-12T19:38:58.538Z,6.57
2022-10-12T19:41:27.636Z,6.63
2022-10-12T19:44:02.638Z,5.67
2022-10-12T19:46:35.007Z,6.10
2022-10-12T19:49:04.831Z,7.83
2022-10-12T19:51:33.568Z,7.57
2022-10-12T19:54:04.910Z,8.43
2022-10-12T19:56:33.908Z,7.97
2022-10-12T19:59:02.122Z,7.53
2022-10-12T20:01:33.406Z,8.60
2022-10-12T20:04:01.767Z,6.60
2022-10-12T20:06:31.661Z,6.73
2022-10-12T20:09:03.637Z,5.67
2022-10-12T20:11:32.292Z,5.93
2022-10-12T20:14:00.861Z,7.20
2022-10-12T20:16:34.653Z,6.60
2022-10-12T20:19:04.504Z,5.77
2022-10-12T20:21:36.499Z,6.03
2022-10-12T20:24:05.084Z,5.70
2022-10-12T20:26:33.526Z,6.30
2022-10-12T20:29:02.435Z,6.47
2022-10-12T20:31:30.708Z,6.73
2022-10-12T20:33:59.169Z,6.43
2022-10-12T20:36:29.017Z,5.93
2022-10-12T20:38:59.011Z,7.97
2022-10-12T20:41:27.948Z,13.67
2022-10-12T20:43:57.342Z,15.73
2022-10-12T20:46:26.654Z,14.27
2022-10-12T20:48:58.898Z,12.27
2022-10-12T20:51:29.533Z,5.33
2022-10-12T20:54:02.496Z,4.43
2022-10-12T20:56:32.643Z,4.50
2022-10-12T20:59:01.264Z,4.13
2022-10-12T21:01:29.702Z,5.03
2022-10-12T21:03:57.858Z,4.60
2022-10-12T21:06:26.113Z,4.63
2022-10-12T21:08:57.063Z,5.20
2022-10-12T21:11:28.416Z,3.57
2022-10-12T21:13:56.635Z,4.13
2022-10-12T21:16:25.786Z,4.60
2022-10-12T21:18:55.667Z,3.97
2022-10-12T21:21:24.569Z,3.80
2022-10-12T21:23:55.325Z,5.93
2022-10-12T21:26:25.173Z,5.07
2022-10-12T21:28:54.898Z,5.63
2022-10-12T21:31:28.201Z,3.80
2022-10-12T21:34:00.107Z,3.50
2022-10-12T21:36:29.400Z,4.30
2022-10-12T21:38:58.294Z,4.23
2022-10-12T21:41:30.077Z,3.73
2022-10-12T21:43:59.576Z,3.97
2022-10-12T21:46:29.363Z,3.23
2022-10-12T21:48:58.025Z,3.60
2022-10-12T21:51:27.452Z,3.67
2022-10-12T21:53:55.734Z,3.03
2022-10-12T21:56:28.341Z,4.27
2022-10-12T21:58:58.713Z,4.10
2022-10-12T22:01:30.908Z,2.73
2022-10-12T22:04:01.656Z,4.10
2022-10-12T22:06:31.628Z,4.17
2022-10-12T22:09:02.109Z,3.60
2022-10-12T22:11:33.893Z,4.37
2022-10-12T22:14:04.904Z,3.70
2022-10-12T22:16:36.025Z,3.97
2022-10-12T22:19:07.917Z,3.83
2022-10-12T22:21:36.578Z,3.57
2022-10-12T22:24:04.954Z,4.40
2022-10-12T22:26:33.311Z,3.40
2022-10-12T22:29:01.961Z,3.83
2022-10-12T22:31:30.327Z,6.17
2022-10-12T22:33:59.826Z,3.83
2022-10-12T22:36:28.112Z,4.63
2022-10-12T22:38:56.506Z,6.10
2022-10-12T22:41:24.891Z,5.23
2022-10-12T22:43:55.471Z,3.70
2022-10-12T22:46:26.208Z,3.63
2022-10-12T22:48:55.392Z,3.40
2022-10-12T22:51:31.024Z,3.60
2022-10-12T22:53:59.293Z,3.37
2022-10-12T22:56:27.783Z,4.23
2022-10-12T22:58:56.075Z,3.80
2022-10-12T23:01:24.802Z,4.27
2022-10-12T23:03:54.961Z,3.90
2022-10-12T23:06:25.246Z,4.20
2022-10-12T23:08:53.775Z,4.17
2022-10-12T23:11:24.301Z,4.07
2022-10-12T23:13:52.472Z,4.17
2022-10-12T23:16:23.212Z,3.97
2022-10-12T23:18:58.943Z,3.53
2022-10-12T23:21:31.172Z,4.03
2022-10-12T23:24:00.397Z,3.90
2022-10-12T23:26:29.892Z,3.60
2022-10-12T23:28:58.210Z,3.97
2022-10-12T23:31:28.889Z,3.77
2022-10-12T23:33:58.309Z,3.17
2022-10-12T23:36:26.843Z,3.67
2022-10-12T23:38:56.712Z,3.33
2022-10-12T23:41:26.305Z,3.23
2022-10-12T23:43:55.494Z,3.63
2022-10-12T23:46:23.687Z,3.20
2022-10-12T23:48:51.800Z,3.30
2022-10-12T23:51:19.925Z,4.10
2022-10-12T23:53:49.035Z,3.10
2022-10-12T23:56:19.729Z,3.83
2022-10-12T23:58:47.889Z,3.50
